Time;durP1;ratioP1;P1;durP2;ratioP2;P2;SDS_P1;SDS_P2;PMS_P1;PMS_P2;Temp;Humidity;BMP_temperature;BMP_pressure;BME280_temperature;BME280_humidity;BME280_pressure;Samples;Min_cycle;Max_cycle;Signal;HPM_P1;HPM_P2
2023/09/18 01:51:58;;;;;;;13.52;5.63;;;;;;;22.62;80.57;99840.00;4828341;29;20674;-75
2023/09/18 05:56:52;;;;;;;19.70;6.07;;;;;;;21.38;92.38;99731.63;4837317;29;20271;-77
2023/09/18 05:59:29;;;;;;;18.17;5.37;;;;;;;21.29;93.83;99746.50;4921129;28;20223;-76
2023/09/18 06:01:59;;;;;;;21.10;6.93;;;;;;;21.28;94.04;99734.13;4984373;28;20205;-74
2023/09/18 06:04:38;;;;;;;24.50;6.63;;;;;;;21.30;94.57;99739.25;4997810;28;20652;-81
2023/09/18 06:07:20;;;;;;;17.17;6.10;;;;;;;21.32;94.22;99748.75;5000525;23;20238;-66
2023/09/18 06:09:50;;;;;;;13.67;4.80;;;;;;;21.32;94.06;99754.16;4992016;28;20301;-73
2023/09/18 06:12:19;;;;;;;19.03;5.23;;;;;;;21.42;93.80;99753.56;4996266;28;20202;-70
2023/09/18 06:14:47;;;;;;;14.73;5.10;;;;;;;21.47;93.25;99767.13;4992768;28;20234;-74
2023/09/18 06:17:16;;;;;;;19.47;4.77;;;;;;;21.50;92.80;99749.66;4997857;28;20249;-69
2023/09/18 06:19:45;;;;;;;16.30;5.20;;;;;;;21.54;91.89;99767.03;5001865;28;20241;-69
2023/09/18 06:22:13;;;;;;;16.83;6.03;;;;;;;21.48;92.98;99776.88;5000832;28;20210;-75
2023/09/18 06:24:41;;;;;;;19.13;5.80;;;;;;;21.51;92.64;99772.91;4997894;28;20201;-74
2023/09/18 06:27:09;;;;;;;17.97;4.33;;;;;;;21.58;92.40;99770.88;5000594;28;20206;-74
2023/09/18 06:29:39;;;;;;;12.47;4.40;;;;;;;21.58;92.53;99771.72;4999760;28;20206;-72
2023/09/18 06:32:07;;;;;;;18.07;4.87;;;;;;;21.55;92.56;99774.06;4998976;28;20194;-73
2023/09/18 06:34:35;;;;;;;16.83;5.07;;;;;;;21.56;92.95;99775.69;4998745;28;20520;-73
2023/09/18 06:37:04;;;;;;;17.67;5.07;;;;;;;21.62;92.36;99785.56;5000319;28;20229;-75
2023/09/18 06:39:31;;;;;;;18.60;5.30;;;;;;;21.62;92.19;99790.94;4997156;28;20218;-73
2023/09/18 06:41:59;;;;;;;15.20;4.57;;;;;;;21.67;92.52;99791.88;4988203;28;20322;-70
2023/09/18 06:44:27;;;;;;;14.47;5.13;;;;;;;21.65;92.59;99790.47;4994229;28;20208;-70
2023/09/18 06:46:56;;;;;;;13.00;4.00;;;;;;;21.66;91.69;99794.81;4992713;28;20663;-73
2023/09/18 06:49:25;;;;;;;14.00;4.73;;;;;;;21.69;92.36;99807.84;4992650;28;20202;-72
2023/09/18 06:51:52;;;;;;;16.33;5.10;;;;;;;21.72;91.78;99807.38;4995375;28;20920;-69
2023/09/18 06:54:21;;;;;;;11.80;4.53;;;;;;;21.73;91.31;99817.06;4997328;28;20495;-68
2023/09/18 06:56:48;;;;;;;18.00;4.87;;;;;;;21.70;91.96;99814.88;4996788;28;20213;-68
2023/09/18 06:59:16;;;;;;;18.97;4.47;;;;;;;21.73;91.39;99815.19;4997568;28;20210;-67
2023/09/18 07:01:44;;;;;;;14.00;4.50;;;;;;;21.73;91.52;99812.50;4998616;28;20225;-70
2023/09/18 07:04:13;;;;;;;11.93;4.50;;;;;;;21.74;91.46;99810.63;4998589;28;20196;-68
2023/09/18 07:06:41;;;;;;;18.63;4.53;;;;;;;21.77;91.62;99815.56;4993773;28;20221;-69
2023/09/18 07:09:11;;;;;;;18.03;4.70;;;;;;;21.80;91.12;99820.50;4996968;28;20198;-68
2023/09/18 07:11:39;;;;;;;18.70;5.03;;;;;;;21.86;90.21;99818.72;4996790;28;20732;-69
2023/09/18 07:14:07;;;;;;;22.10;5.43;;;;;;;21.92;90.01;99823.97;4999113;28;20210;-69
2023/09/18 07:16:35;;;;;;;18.40;4.63;;;;;;;21.99;88.75;99830.09;4998867;28;20639;-69
2023/09/18 07:19:04;;;;;;;14.13;4.83;;;;;;;21.99;88.59;99813.91;4995318;28;20677;-68
2023/09/18 07:21:35;;;;;;;17.38;4.60;;;;;;;22.05;88.13;99831.03;4995659;28;20707;-69
2023/09/18 07:24:03;;;;;;;15.53;4.17;;;;;;;22.09;87.55;99838.41;4995966;28;20201;-68
2023/09/18 07:26:31;;;;;;;16.38;3.97;;;;;;;22.08;88.25;99825.97;4996017;28;20206;-69
2023/09/18 07:28:59;;;;;;;18.10;4.93;;;;;;;22.15;87.57;99844.75;4995742;28;20202;-68
2023/09/18 07:31:29;;;;;;;16.93;4.60;;;;;;;22.22;86.95;99839.22;4994425;28;20210;-69
2023/09/18 07:33:57;;;;;;;15.65;4.10;;;;;;;22.23;86.15;99846.25;4994642;28;20307;-69
2023/09/18 07:36:25;;;;;;;11.38;3.85;;;;;;;22.23;86.04;99833.56;4998386;28;20239;-70
2023/09/18 07:38:54;;;;;;;16.45;4.07;;;;;;;22.32;86.19;99834.03;4995437;28;20212;-68
2023/09/18 07:41:22;;;;;;;13.18;3.85;;;;;;;22.37;85.81;99831.41;4996555;28;20561;-68
2023/09/18 07:43:50;;;;;;;24.23;4.18;;;;;;;22.35;86.13;99838.91;4994567;28;20198;-66
2023/09/18 07:46:17;;;;;;;19.40;3.75;;;;;;;22.32;85.72;99842.13;4994415;28;20229;-67
2023/09/18 07:48:45;;;;;;;18.77;3.80;;;;;;;22.36;84.77;99848.66;4993875;28;20217;-67
2023/09/18 07:51:15;;;;;;;12.23;3.63;;;;;;;22.35;84.69;99855.94;4995229;28;20235;-64
2023/09/18 07:53:44;;;;;;;12.40;3.42;;;;;;;22.32;84.64;99855.63;4998470;28;20220;-62
2023/09/18 07:56:13;;;;;;;16.52;4.00;;;;;;;22.29;84.14;99856.09;4996282;28;20214;-68
2023/09/18 07:58:41;;;;;;;14.73;3.33;;;;;;;22.29;83.69;99858.78;4994825;28;20216;-64
2023/09/18 08:01:10;;;;;;;9.82;2.80;;;;;;;22.34;82.83;99861.63;4994781;28;20596;-64
2023/09/18 08:03:38;;;;;;;11.37;3.20;;;;;;;22.31;82.42;99860.22;4995072;28;20301;-65
2023/09/18 08:06:06;;;;;;;11.95;2.92;;;;;;;22.30;82.78;99874.75;4995338;28;20246;-64
2023/09/18 08:08:33;;;;;;;9.73;3.35;;;;;;;22.24;82.34;99877.59;4994765;28;20345;-64
2023/09/18 08:11:09;;;;;;;9.20;2.50;;;;;;;22.31;81.70;99887.22;4994775;28;20220;-65
2023/09/18 08:13:38;;;;;;;10.82;2.45;;;;;;;22.39;80.02;99878.72;4996239;28;20206;-66
2023/09/18 08:16:07;;;;;;;11.45;2.63;;;;;;;22.43;79.74;99884.47;4997106;28;20223;-65
2023/09/18 08:18:35;;;;;;;8.63;2.30;;;;;;;22.42;79.83;99889.06;4994702;28;20205;-64
2023/09/18 08:21:04;;;;;;;9.23;2.33;;;;;;;22.41;80.21;99878.50;4993594;28;20237;-64
2023/09/18 08:23:32;;;;;;;6.95;2.17;;;;;;;22.38;80.62;99889.78;4996792;28;20260;-64
2023/09/18 08:26:01;;;;;;;9.20;2.28;;;;;;;22.32;81.07;99882.63;4994295;28;20659;-64
2023/09/18 08:28:28;;;;;;;12.70;2.58;;;;;;;22.38;81.03;99879.78;4993583;28;20301;-68
2023/09/18 08:30:58;;;;;;;12.18;2.30;;;;;;;22.28;81.59;99881.47;4991644;28;20209;-66
2023/09/18 08:33:26;;;;;;;13.30;2.70;;;;;;;22.27;82.39;99863.59;4992561;28;20197;-65
2023/09/18 08:35:54;;;;;;;10.85;2.67;;;;;;;22.21;82.91;99864.56;4997269;28;20515;-65
2023/09/18 08:38:22;;;;;;;7.25;2.00;;;;;;;22.23;82.77;99862.47;4994623;28;20202;-64
2023/09/18 08:40:50;;;;;;;8.23;2.10;;;;;;;22.27;82.18;99860.91;4993265;28;20237;-65
2023/09/18 08:43:20;;;;;;;9.40;2.47;;;;;;;22.20;83.14;99865.63;4992603;28;20222;-66
2023/09/18 08:45:52;;;;;;;10.23;2.38;;;;;;;22.23;82.74;99857.88;4992868;28;20304;-64
2023/09/18 08:48:22;;;;;;;9.85;2.03;;;;;;;22.21;83.16;99848.38;4992864;28;20212;-66
2023/09/18 08:50:52;;;;;;;7.15;2.20;;;;;;;22.22;82.55;99855.41;4985328;28;20746;-66
2023/09/18 08:53:20;;;;;;;7.43;2.28;;;;;;;22.24;82.88;99856.81;4993425;28;20650;-67
2023/09/18 08:55:48;;;;;;;6.55;2.20;;;;;;;22.23;83.33;99860.59;4981970;28;20210;-66
2023/09/18 08:58:19;;;;;;;6.85;1.98;;;;;;;22.33;82.30;99860.78;4995547;28;20233;-67
2023/09/18 09:00:47;;;;;;;10.18;2.30;;;;;;;22.39;81.68;99862.53;4994662;28;20214;-63
2023/09/18 09:03:15;;;;;;;6.25;1.90;;;;;;;22.38;82.06;99860.06;4993274;28;20301;-65
2023/09/18 09:05:44;;;;;;;6.82;1.88;;;;;;;22.36;81.92;99864.88;4993131;28;20757;-66
2023/09/18 09:08:12;;;;;;;7.85;2.10;;;;;;;22.34;81.90;99862.41;4994143;28;20699;-63
2023/09/18 09:10:40;;;;;;;8.95;1.75;;;;;;;22.38;81.59;99855.47;4995604;28;20261;-66
2023/09/18 09:13:07;;;;;;;6.30;2.03;;;;;;;22.36;81.91;99862.19;4994096;28;20241;-64
2023/09/18 09:15:46;;;;;;;8.05;1.92;;;;;;;22.43;81.55;99854.75;4996628;28;20193;-64
2023/09/18 09:18:15;;;;;;;11.00;2.28;;;;;;;22.35;82.58;99871.34;4994865;28;20210;-65
2023/09/18 09:20:54;;;;;;;14.52;2.05;;;;;;;22.37;82.25;99890.81;4993320;28;20230;-66
2023/09/18 09:23:22;;;;;;;7.60;2.13;;;;;;;22.36;82.80;99903.50;4992086;28;20324;-65
2023/09/18 09:25:49;;;;;;;6.88;2.17;;;;;;;22.35;82.72;99901.03;4992001;28;20202;-66
2023/09/18 09:28:29;;;;;;;5.95;2.10;;;;;;;22.36;83.06;99906.22;4992802;28;20212;-64
2023/09/18 09:31:02;;;;;;;5.28;1.63;;;;;;;22.41;81.87;99890.13;4996042;28;20209;-64
2023/09/18 09:33:30;;;;;;;9.68;2.38;;;;;;;22.48;80.90;99890.81;4990913;28;20205;-65
2023/09/18 09:36:00;;;;;;;8.00;1.75;;;;;;;22.47;81.05;99897.25;4994629;28;20263;-65
2023/09/18 09:38:33;;;;;;;8.93;1.80;;;;;;;22.44;80.93;99900.44;4991775;28;20730;-66
2023/09/18 09:41:02;;;;;;;8.05;2.63;;;;;;;22.43;81.11;99893.38;4992287;28;20835;-65
2023/09/18 09:43:32;;;;;;;11.93;2.33;;;;;;;22.46;80.46;99892.09;4992860;28;20210;-65
2023/09/18 09:46:02;;;;;;;5.00;1.83;;;;;;;22.51;80.04;99895.75;4994472;28;20206;-64
2023/09/18 09:48:31;;;;;;;6.78;1.70;;;;;;;22.56;80.04;99894.19;4989676;28;20229;-66
2023/09/18 09:51:03;;;;;;;9.50;1.85;;;;;;;22.53;80.06;99892.78;4993106;28;20273;-63
2023/09/18 09:53:43;;;;;;;8.32;2.30;;;;;;;22.58;80.62;99895.59;4994303;28;20268;-65
2023/09/18 09:56:11;;;;;;;8.43;2.67;;;;;;;22.51;81.64;99878.72;4995513;28;20238;-64
2023/09/18 09:58:43;;;;;;;6.45;2.30;;;;;;;22.58;81.04;99886.66;4993607;28;20790;-64
2023/09/18 10:01:17;;;;;;;5.75;2.33;;;;;;;22.63;80.79;99884.88;4998341;28;20316;-63
2023/09/18 10:03:46;;;;;;;5.63;1.85;;;;;;;22.55;81.25;99890.66;4996473;28;20299;-65
2023/09/18 10:06:17;;;;;;;8.70;1.90;;;;;;;22.51;81.77;99884.94;4996676;28;20221;-65
2023/09/18 10:08:45;;;;;;;5.70;1.98;;;;;;;22.57;81.47;99885.03;4994016;28;20502;-65
2023/09/18 10:11:17;;;;;;;7.20;1.92;;;;;;;22.78;79.53;99885.19;4997496;28;20918;-63
2023/09/18 10:13:49;;;;;;;8.05;2.05;;;;;;;22.75;79.60;99893.78;4997359;28;20210;-63
2023/09/18 10:16:20;;;;;;;6.25;2.22;;;;;;;22.68;80.65;99882.28;4997961;28;20317;-63
2023/09/18 10:18:57;;;;;;;6.38;1.65;;;;;;;22.69;80.87;99877.69;4996910;28;20213;-63
2023/09/18 10:21:32;;;;;;;6.97;2.25;;;;;;;22.73;80.76;99890.47;4995233;28;20237;-66
2023/09/18 10:24:08;;;;;;;6.03;1.90;;;;;;;22.79;80.48;99883.31;4997644;28;20235;-65
2023/09/18 10:26:43;;;;;;;6.95;2.17;;;;;;;22.88;79.71;99884.56;4995800;28;21115;-65
2023/09/18 10:29:13;;;;;;;6.60;1.80;;;;;;;22.89;79.68;99881.63;4997603;28;20663;-64
2023/09/18 10:31:43;;;;;;;9.68;2.20;;;;;;;22.97;78.89;99877.69;4998584;28;20202;-64
2023/09/18 10:34:13;;;;;;;7.68;2.33;;;;;;;22.98;79.36;99886.63;4995153;28;20202;-64
2023/09/18 10:36:44;;;;;;;7.72;2.20;;;;;;;23.07;78.91;99886.00;4996398;28;20264;-66
2023/09/18 10:39:12;;;;;;;8.85;2.65;;;;;;;23.08;78.80;99889.50;4994514;28;20213;-66
2023/09/18 10:41:42;;;;;;;9.05;2.17;;;;;;;23.24;77.51;99891.41;4998523;28;20265;-65
2023/09/18 10:44:12;;;;;;;8.90;1.60;;;;;;;23.38;77.30;99892.75;4996392;28;20552;-65
2023/09/18 10:46:39;;;;;;;7.85;1.90;;;;;;;23.55;76.00;99893.59;4997636;28;20217;-65
2023/09/18 10:49:07;;;;;;;5.80;1.70;;;;;;;23.63;75.71;99876.94;4994719;28;20752;-64
2023/09/18 10:51:37;;;;;;;8.10;2.22;;;;;;;23.82;74.11;99871.25;4994653;28;20210;-63
2023/09/18 10:54:08;;;;;;;5.20;1.73;;;;;;;23.89;73.67;99867.31;4995278;28;20297;-65
2023/09/18 10:56:36;;;;;;;6.20;2.50;;;;;;;24.02;72.79;99866.09;4993079;28;20202;-65
2023/09/18 10:59:08;;;;;;;8.07;2.00;;;;;;;23.98;72.14;99859.56;4993943;28;20210;-66
2023/09/18 11:01:37;;;;;;;6.53;1.67;;;;;;;23.91;72.61;99854.34;4994652;28;20774;-66
2023/09/18 11:04:08;;;;;;;5.18;1.67;;;;;;;23.90;72.90;99858.13;4993810;28;20203;-64
2023/09/18 11:07:05;;;;;;;7.05;2.25;;;;;;;23.94;72.42;99858.41;4994091;28;20217;-64
2023/09/18 11:09:43;;;;;;;8.50;2.00;;;;;;;23.88;72.48;99864.84;4994116;28;20210;-65
2023/09/18 11:12:12;;;;;;;7.82;2.15;;;;;;;23.80;73.76;99863.38;4995619;28;20209;-66
2023/09/18 11:14:44;;;;;;;9.73;2.15;;;;;;;23.76;74.51;99873.06;4995064;28;20209;-64
2023/09/18 11:17:33;;;;;;;10.57;2.25;;;;;;;23.71;74.34;99873.00;4995441;28;20237;-67
2023/09/18 11:20:11;;;;;;;7.72;2.47;;;;;;;23.81;74.00;99875.03;4996225;28;20216;-65
2023/09/18 11:22:46;;;;;;;9.10;2.63;;;;;;;23.74;74.37;99879.81;4994939;28;20228;-66
2023/09/18 11:25:37;;;;;;;10.15;2.30;;;;;;;23.74;73.99;99877.94;4997917;28;20193;-64
2023/09/18 11:28:07;;;;;;;6.68;2.03;;;;;;;23.78;73.70;99873.63;4995328;28;20612;-63
2023/09/18 11:30:36;;;;;;;8.07;2.00;;;;;;;23.76;73.78;99875.75;4995432;28;20225;-64
2023/09/18 11:33:05;;;;;;;7.47;1.98;;;;;;;23.82;73.29;99863.97;4995294;28;20214;-64
2023/09/18 11:35:34;;;;;;;11.25;2.35;;;;;;;23.74;73.78;99861.69;4995231;28;20591;-64
2023/09/18 11:38:07;;;;;;;9.95;2.65;;;;;;;23.78;73.75;99864.69;4997170;28;20292;-65
2023/09/18 11:40:40;;;;;;;9.82;2.80;;;;;;;23.81;73.71;99864.22;4996031;28;20280;-64
2023/09/18 11:43:25;;;;;;;8.23;2.45;;;;;;;23.90;73.73;99868.94;4993535;28;20237;-66
2023/09/18 11:45:55;;;;;;;8.38;2.13;;;;;;;24.09;72.11;99865.94;4991762;28;20205;-63
2023/09/18 11:48:25;;;;;;;5.68;2.08;;;;;;;24.24;71.11;99869.69;4992915;28;20267;-64
2023/09/18 11:50:54;;;;;;;6.18;2.13;;;;;;;24.50;69.92;99878.13;4993985;28;20217;-65
2023/09/18 11:53:24;;;;;;;7.82;2.05;;;;;;;24.76;68.54;99882.75;4991872;28;20257;-65
2023/09/18 11:55:54;;;;;;;7.47;1.60;;;;;;;24.88;68.48;99886.16;4997066;28;20238;-63
2023/09/18 11:58:23;;;;;;;8.15;2.25;;;;;;;25.21;66.55;99878.88;4993185;28;20659;-64
2023/09/18 12:00:51;;;;;;;9.23;1.85;;;;;;;25.11;66.92;99885.84;4992097;28;20510;-66
2023/09/18 12:03:26;;;;;;;5.60;1.40;;;;;;;24.93;67.71;99893.53;4991569;28;20233;-66
2023/09/18 12:05:57;;;;;;;7.72;2.30;;;;;;;24.81;68.52;99892.81;4991219;28;20216;-66
2023/09/18 12:08:27;;;;;;;9.52;2.33;;;;;;;24.89;67.43;99890.47;4994267;28;20204;-65
2023/09/18 12:10:56;;;;;;;7.78;1.90;;;;;;;24.80;67.79;99892.03;4995617;28;20209;-65
2023/09/18 12:13:26;;;;;;;6.25;2.28;;;;;;;24.89;67.66;99892.41;4997566;28;20612;-65
2023/09/18 12:15:58;;;;;;;7.78;2.00;;;;;;;25.94;63.84;99885.44;4995712;28;21051;-66
2023/09/18 12:18:28;;;;;;;8.52;2.03;;;;;;;26.33;61.15;99875.03;4995266;28;20214;-65
2023/09/18 12:20:58;;;;;;;33.72;4.15;;;;;;;25.92;63.25;99882.97;4996930;28;20308;-64
2023/09/18 12:23:28;;;;;;;12.63;3.47;;;;;;;25.54;65.09;99881.31;4993762;28;22370;-66
2023/09/18 12:26:01;;;;;;;10.45;1.73;;;;;;;25.39;65.53;99883.94;4997914;28;20202;-63
2023/09/18 12:28:30;;;;;;;6.18;2.33;;;;;;;25.18;66.04;99882.09;4991562;28;20194;-64
2023/09/18 12:30:59;;;;;;;7.40;2.25;;;;;;;25.05;66.20;99886.88;4993234;28;20504;-65
2023/09/18 12:33:27;;;;;;;6.25;2.10;;;;;;;24.93;66.64;99882.69;4994683;28;20539;-65
2023/09/18 12:35:54;;;;;;;8.13;2.42;;;;;;;24.86;66.39;99882.88;4993274;28;20212;-65
2023/09/18 12:38:26;;;;;;;7.22;2.30;;;;;;;24.67;66.52;99885.09;4990209;28;20197;-65
2023/09/18 12:40:55;;;;;;;8.85;2.45;;;;;;;24.62;66.83;99889.66;4994595;28;20202;-66
2023/09/18 12:43:24;;;;;;;9.82;2.25;;;;;;;24.47;67.50;99881.34;4995162;28;20245;-64
2023/09/18 12:45:54;;;;;;;5.97;2.17;;;;;;;24.41;67.10;99885.88;4994259;28;20264;-63
2023/09/18 12:48:26;;;;;;;8.63;2.03;;;;;;;24.22;68.83;99877.25;4992744;28;21234;-67
2023/09/18 12:50:54;;;;;;;9.93;2.38;;;;;;;24.28;68.22;99873.53;4993960;28;20207;-64
2023/09/18 12:53:23;;;;;;;8.85;2.30;;;;;;;24.35;67.50;99866.03;4994848;28;20677;-64
2023/09/18 12:55:51;;;;;;;8.60;2.10;;;;;;;24.28;67.84;99870.81;4992379;28;20216;-63
2023/09/18 12:58:20;;;;;;;6.82;2.42;;;;;;;24.34;67.78;99875.25;4994107;28;20202;-64
2023/09/18 13:00:50;;;;;;;7.70;2.30;;;;;;;24.42;67.95;99865.03;4991928;28;20610;-64
2023/09/18 13:03:19;;;;;;;6.95;2.25;;;;;;;24.33;68.41;99873.59;4992367;28;20713;-63
2023/09/18 13:05:48;;;;;;;7.53;2.10;;;;;;;24.40;67.90;99862.56;4992596;28;20229;-63
2023/09/18 13:08:16;;;;;;;6.03;2.30;;;;;;;24.34;67.11;99867.13;4992014;28;20726;-65
2023/09/18 13:10:45;;;;;;;9.30;2.22;;;;;;;24.23;68.01;99870.75;4991299;28;20667;-65
2023/09/18 13:13:19;;;;;;;6.50;1.80;;;;;;;24.22;67.50;99866.41;4993997;28;20205;-66
2023/09/18 13:15:48;;;;;;;7.22;2.13;;;;;;;24.05;68.66;99865.63;4992975;28;20588;-65
2023/09/18 13:18:20;;;;;;;5.50;2.05;;;;;;;24.09;68.23;99855.13;4991271;28;20336;-64
2023/09/18 13:20:48;;;;;;;7.40;1.88;;;;;;;24.04;68.76;99860.44;4991926;28;20682;-65
2023/09/18 13:23:16;;;;;;;5.60;1.95;;;;;;;24.10;68.12;99854.84;4991131;28;20331;-64
2023/09/18 13:25:49;;;;;;;6.55;1.90;;;;;;;24.11;67.96;99853.78;4990913;28;20293;-64
2023/09/18 13:28:20;;;;;;;4.70;1.48;;;;;;;24.16;67.45;99861.16;4992110;28;20324;-65
2023/09/18 13:30:49;;;;;;;5.38;2.28;;;;;;;24.10;68.23;99857.53;4994208;28;20227;-65
2023/09/18 13:33:18;;;;;;;8.05;1.70;;;;;;;24.07;68.63;99849.94;4992409;28;20214;-66
2023/09/18 13:35:46;;;;;;;9.85;1.63;;;;;;;24.13;68.83;99850.81;4993369;28;20762;-64
2023/09/18 13:38:14;;;;;;;6.15;1.80;;;;;;;24.26;67.94;99851.31;4995335;28;20209;-63
2023/09/18 13:40:43;;;;;;;5.80;2.10;;;;;;;24.22;67.81;99865.59;4992962;28;20198;-64
2023/09/18 13:43:11;;;;;;;6.07;2.22;;;;;;;24.28;67.57;99843.72;4994717;28;20368;-65
2023/09/18 13:45:39;;;;;;;7.65;2.10;;;;;;;24.33;67.41;99849.22;4992862;28;20198;-65
2023/09/18 13:48:08;;;;;;;7.07;2.22;;;;;;;24.37;67.29;99847.63;4991749;28;20566;-65
2023/09/18 13:50:38;;;;;;;6.53;1.83;;;;;;;24.67;66.00;99843.63;4993539;28;20217;-64
2023/09/18 13:53:06;;;;;;;8.55;2.60;;;;;;;24.72;65.47;99841.78;4990378;28;20683;-63
2023/09/18 13:55:35;;;;;;;7.47;2.50;;;;;;;24.71;65.68;99840.16;4992929;28;20219;-65
2023/09/18 13:58:04;;;;;;;8.48;1.90;;;;;;;24.69;64.94;99844.19;4991899;28;20622;-66
2023/09/18 14:00:32;;;;;;;5.57;1.85;;;;;;;24.71;64.62;99842.06;4993567;28;20272;-65
2023/09/18 14:03:00;;;;;;;6.43;1.88;;;;;;;24.72;64.60;99833.63;4991634;28;20255;-66
2023/09/18 14:05:30;;;;;;;4.57;1.73;;;;;;;24.77;64.95;99835.59;4991998;28;20225;-65
2023/09/18 14:07:59;;;;;;;8.73;2.40;;;;;;;24.75;65.71;99818.75;4990298;28;20206;-65
2023/09/18 14:10:28;;;;;;;7.90;2.65;;;;;;;24.94;65.43;99814.63;4992404;28;20209;-62
2023/09/18 14:12:57;;;;;;;8.68;2.30;;;;;;;24.92;64.80;99799.69;4995939;28;20198;-64
2023/09/18 14:15:25;;;;;;;7.32;2.35;;;;;;;25.02;64.21;99799.78;4995577;28;20599;-65
2023/09/18 14:17:52;;;;;;;5.57;2.38;;;;;;;25.05;63.32;99788.44;4994154;28;20706;-64
2023/09/18 14:20:20;;;;;;;5.80;1.85;;;;;;;25.06;62.49;99782.75;4991533;28;20678;-64
2023/09/18 14:22:49;;;;;;;9.88;2.40;;;;;;;25.05;62.18;99783.00;4991710;28;20216;-64
2023/09/18 14:25:19;;;;;;;9.00;2.50;;;;;;;25.08;61.09;99783.28;4992506;28;20237;-65
2023/09/18 14:27:48;;;;;;;7.00;1.98;;;;;;;25.01;61.49;99788.13;4991022;28;20659;-64
2023/09/18 14:30:15;;;;;;;6.38;1.85;;;;;;;24.94;62.21;99787.50;4994352;28;20226;-64
2023/09/18 14:32:43;;;;;;;8.13;2.20;;;;;;;25.00;61.88;99781.06;4990705;28;20361;-65
2023/09/18 14:35:11;;;;;;;6.72;1.77;;;;;;;25.14;60.99;99777.91;4990825;28;20825;-64
2023/09/18 14:37:39;;;;;;;6.65;2.50;;;;;;;25.04;61.73;99776.75;4992744;28;20261;-64
2023/09/18 14:40:11;;;;;;;6.18;2.08;;;;;;;25.04;62.31;99776.75;4991792;28;20293;-62
2023/09/18 14:42:39;;;;;;;4.57;1.65;;;;;;;25.16;60.79;99770.31;4995247;28;20232;-64
2023/09/18 14:45:08;;;;;;;8.38;2.30;;;;;;;25.19;60.51;99775.22;4996022;28;20229;-65
2023/09/18 14:47:36;;;;;;;7.68;2.20;;;;;;;25.14;61.18;99765.16;4993796;28;20785;-65
2023/09/18 14:50:05;;;;;;;9.15;2.70;;;;;;;25.16;61.38;99768.41;4996152;28;20252;-65
2023/09/18 14:52:33;;;;;;;7.47;2.17;;;;;;;25.29;60.52;99750.88;4996668;28;20729;-65
2023/09/18 14:55:01;;;;;;;8.70;2.13;;;;;;;25.21;60.72;99744.03;4996100;28;20206;-64
2023/09/18 14:57:30;;;;;;;5.45;2.50;;;;;;;25.14;60.94;99745.34;4994711;28;20300;-64
2023/09/18 14:59:58;;;;;;;7.72;2.58;;;;;;;25.11;60.47;99739.38;4996328;28;20198;-65
2023/09/18 15:02:29;;;;;;;9.93;3.03;;;;;;;25.05;61.35;99743.13;4998299;28;20993;-65
2023/09/18 15:04:58;;;;;;;7.10;2.60;;;;;;;24.91;62.17;99744.63;4995970;28;20218;-63
2023/09/18 15:07:26;;;;;;;5.03;1.92;;;;;;;24.87;62.19;99732.66;4997603;28;20220;-65
2023/09/18 15:09:54;;;;;;;7.18;2.50;;;;;;;24.76;62.90;99725.50;4996615;28;20301;-65
2023/09/18 15:12:22;;;;;;;8.88;2.90;;;;;;;24.68;63.08;99734.94;4995915;28;20215;-66
2023/09/18 15:14:51;;;;;;;9.98;2.45;;;;;;;24.77;62.56;99732.56;4996993;28;20213;-65
2023/09/18 15:17:38;;;;;;;6.15;2.30;;;;;;;24.61;63.68;99738.94;4994947;28;20268;-63
2023/09/18 15:20:07;;;;;;;11.20;2.90;;;;;;;24.65;63.04;99730.03;4996175;28;20282;-64
2023/09/18 15:22:35;;;;;;;7.68;2.72;;;;;;;24.68;62.66;99731.41;4997492;28;20296;-65
2023/09/18 15:25:03;;;;;;;5.95;2.30;;;;;;;24.81;62.42;99722.81;4997488;28;20225;-67
2023/09/18 15:27:31;;;;;;;5.50;1.70;;;;;;;24.91;61.26;99714.81;4997128;28;20212;-63
2023/09/18 15:29:59;;;;;;;7.63;2.30;;;;;;;24.91;61.13;99724.81;4995780;28;20296;-67
2023/09/18 15:32:27;;;;;;;5.50;1.65;;;;;;;24.93;60.72;99723.50;4995975;28;20204;-65
2023/09/18 15:34:55;;;;;;;5.15;2.38;;;;;;;24.96;59.39;99725.72;4995230;28;20422;-64
2023/09/18 15:37:23;;;;;;;4.47;1.85;;;;;;;25.00;58.59;99729.53;4992057;28;20292;-64
2023/09/18 15:39:52;;;;;;;7.57;2.15;;;;;;;24.87;58.93;99727.22;4983890;28;20205;-64
2023/09/18 15:42:20;;;;;;;3.65;1.63;;;;;;;24.90;58.46;99729.41;4996892;28;20222;-64
2023/09/18 15:44:48;;;;;;;4.72;1.80;;;;;;;24.85;58.45;99723.97;4997053;28;20751;-65
2023/09/18 15:47:17;;;;;;;5.25;1.80;;;;;;;24.72;58.63;99727.09;4994586;28;20221;-65
2023/09/18 15:49:44;;;;;;;3.90;1.83;;;;;;;24.66;59.04;99730.84;4995006;28;20223;-65
2023/09/18 15:52:12;;;;;;;3.13;1.50;;;;;;;24.63;59.17;99728.63;4996202;28;20214;-65
2023/09/18 15:54:40;;;;;;;6.80;1.80;;;;;;;24.58;59.55;99731.31;4998232;28;20201;-64
2023/09/18 15:57:08;;;;;;;5.65;1.83;;;;;;;24.64;58.76;99732.97;4996611;28;20215;-64
2023/09/18 15:59:35;;;;;;;6.72;1.60;;;;;;;24.73;58.58;99728.72;4998293;28;20206;-64
2023/09/18 16:02:03;;;;;;;8.90;2.05;;;;;;;24.72;58.03;99724.38;4992082;28;20258;-65
2023/09/18 16:04:32;;;;;;;9.15;2.20;;;;;;;24.66;58.31;99715.41;4992889;28;20737;-64
2023/09/18 16:07:00;;;;;;;4.65;2.00;;;;;;;24.64;58.46;99732.97;4994089;28;20871;-64
2023/09/18 16:09:28;;;;;;;3.80;1.65;;;;;;;24.57;58.79;99725.06;4995909;28;20214;-64
2023/09/18 16:11:56;;;;;;;4.65;1.60;;;;;;;24.57;58.87;99726.97;4996638;28;20501;-65
2023/09/18 16:14:24;;;;;;;6.88;1.52;;;;;;;24.59;58.15;99722.94;4997849;28;20707;-67
2023/09/18 16:16:51;;;;;;;6.68;1.48;;;;;;;24.41;59.13;99722.47;4994413;28;20221;-65
2023/09/18 16:19:19;;;;;;;6.32;2.00;;;;;;;24.48;58.75;99718.50;4992839;28;20210;-63
2023/09/18 16:21:48;;;;;;;7.32;1.98;;;;;;;24.45;59.04;99718.19;4994488;28;20289;-66
2023/09/18 16:24:16;;;;;;;5.07;1.60;;;;;;;24.46;59.30;99725.22;4994370;28;20534;-64
2023/09/18 16:26:44;;;;;;;5.15;1.63;;;;;;;24.40;59.73;99724.38;4994876;28;20280;-66
2023/09/18 16:29:12;;;;;;;4.90;1.35;;;;;;;24.40;59.86;99716.25;4995917;28;20601;-65
2023/09/18 16:31:39;;;;;;;4.43;1.50;;;;;;;24.40;60.13;99731.69;4994557;28;20635;-66
2023/09/18 16:34:07;;;;;;;7.05;1.88;;;;;;;24.34;59.93;99738.97;4994588;28;20245;-64
2023/09/18 16:36:35;;;;;;;3.72;1.33;;;;;;;24.41;59.92;99726.00;4995217;28;20202;-65
2023/09/18 16:39:05;;;;;;;5.03;1.83;;;;;;;24.28;60.59;99731.81;4996880;28;20218;-65
2023/09/18 16:41:33;;;;;;;4.45;1.60;;;;;;;24.35;60.37;99733.28;4995413;28;20222;-65
2023/09/18 16:44:03;;;;;;;5.35;1.88;;;;;;;24.34;60.30;99741.66;4994142;28;20210;-65
2023/09/18 16:46:31;;;;;;;5.88;1.77;;;;;;;24.30;60.71;99744.06;4994656;28;20226;-65
2023/09/18 16:48:58;;;;;;;5.45;1.58;;;;;;;24.26;60.65;99737.53;4993440;28;20771;-65
2023/09/18 16:51:26;;;;;;;6.03;1.65;;;;;;;24.15;61.55;99746.56;4993369;28;20629;-65
2023/09/18 16:53:55;;;;;;;10.65;1.60;;;;;;;24.08;61.95;99748.66;4996199;28;20317;-64
2023/09/18 16:56:25;;;;;;;3.45;1.40;;;;;;;24.08;62.17;99756.78;4994937;28;20879;-66
2023/09/18 16:58:53;;;;;;;4.53;1.38;;;;;;;24.04;62.77;99765.66;4994855;28;20280;-66
2023/09/18 17:01:22;;;;;;;6.60;1.92;;;;;;;23.96;63.26;99766.94;4991905;28;20201;-65
2023/09/18 17:03:50;;;;;;;6.43;1.80;;;;;;;23.97;62.99;99765.88;4993902;28;20381;-65
2023/09/18 17:06:20;;;;;;;4.53;1.25;;;;;;;23.99;62.67;99750.19;4994056;28;20236;-65
2023/09/18 17:08:48;;;;;;;3.13;1.20;;;;;;;23.87;63.72;99753.03;4990939;28;20290;-64
2023/09/18 17:11:16;;;;;;;4.25;1.77;;;;;;;23.86;64.88;99748.66;4994416;28;20225;-65
2023/09/18 17:13:45;;;;;;;6.55;1.45;;;;;;;23.83;65.85;99734.84;4991425;28;21165;-65
2023/09/18 17:16:13;;;;;;;6.28;1.30;;;;;;;23.81;66.86;99729.66;4990572;28;20278;-65
2023/09/18 17:18:42;;;;;;;4.32;1.58;;;;;;;23.86;67.01;99737.03;4994766;28;20293;-66
2023/09/18 17:21:10;;;;;;;7.32;1.75;;;;;;;23.68;68.69;99751.69;4991709;28;20213;-65
2023/09/18 17:23:38;;;;;;;5.63;1.75;;;;;;;23.44;70.35;99737.53;4992563;28;20206;-64
2023/09/18 17:26:06;;;;;;;7.82;1.48;;;;;;;23.32;70.55;99720.59;4991970;28;20248;-64
2023/09/18 17:28:33;;;;;;;7.97;1.95;;;;;;;23.20;71.22;99715.31;4992655;28;20208;-65
2023/09/18 17:31:03;;;;;;;3.15;1.33;;;;;;;23.00;72.68;99700.66;4996122;28;20213;-63
2023/09/18 17:33:31;;;;;;;8.90;2.30;;;;;;;22.81;74.02;99695.50;4994150;28;20210;-66
2023/09/18 17:35:59;;;;;;;5.88;1.90;;;;;;;22.71;76.23;99703.41;4995191;28;20213;-65